sensor_id;sensor_type;location;lat;lon;timestamp;P1;durP1;ratioP1;P2;durP2;ratioP2
20445;SDS011;10382;49.140;9.234;2022-09-30T00:00:55;7.60;;;5.27;;
20445;SDS011;10382;49.140;9.234;2022-09-30T00:03:22;8.70;;;5.07;;
20445;SDS011;10382;49.140;9.234;2022-09-30T00:05:54;7.70;;;5.00;;
20445;SDS011;10382;49.140;9.234;2022-09-30T00:08:22;13.93;;;6.90;;
20445;SDS011;10382;49.140;9.234;2022-09-30T00:10:57;7.57;;;4.40;;
20445;SDS011;10382;49.140;9.234;2022-09-30T00:13:25;10.53;;;5.23;;
20445;SDS011;10382;49.140;9.234;2022-09-30T00:15:53;8.77;;;4.43;;
20445;SDS011;10382;49.140;9.234;2022-09-30T00:18:20;13.37;;;6.83;;
20445;SDS011;10382;49.140;9.234;2022-09-30T00:20:47;13.30;;;5.37;;
20445;SDS011;10382;49.140;9.234;2022-09-30T00:23:14;13.67;;;6.43;;
20445;SDS011;10382;49.140;9.234;2022-09-30T00:25:41;18.47;;;5.90;;
20445;SDS011;10382;49.140;9.234;2022-09-30T00:28:07;7.10;;;4.77;;
20445;SDS011;10382;49.140;9.234;2022-09-30T00:30:34;12.60;;;7.27;;
20445;SDS011;10382;49.140;9.234;2022-09-30T00:33:02;19.80;;;7.03;;
20445;SDS011;10382;49.140;9.234;2022-09-30T00:35:29;10.50;;;5.93;;
20445;SDS011;10382;49.140;9.234;2022-09-30T00:37:56;13.27;;;5.53;;
20445;SDS011;10382;49.140;9.234;2022-09-30T00:40:24;11.67;;;5.83;;
20445;SDS011;10382;49.140;9.234;2022-09-30T00:42:51;14.17;;;6.53;;
20445;SDS011;10382;49.140;9.234;2022-09-30T00:45:18;9.97;;;5.20;;
20445;SDS011;10382;49.140;9.234;2022-09-30T00:47:47;12.90;;;5.80;;
20445;SDS011;10382;49.140;9.234;2022-09-30T00:50:34;10.90;;;6.47;;
20445;SDS011;10382;49.140;9.234;2022-09-30T00:53:10;9.40;;;5.07;;
20445;SDS011;10382;49.140;9.234;2022-09-30T00:55:44;13.53;;;6.50;;
20445;SDS011;10382;49.140;9.234;2022-09-30T00:58:16;13.90;;;6.67;;
20445;SDS011;10382;49.140;9.234;2022-09-30T01:00:46;10.90;;;6.13;;
20445;SDS011;10382;49.140;9.234;2022-09-30T01:03:14;11.77;;;5.90;;
20445;SDS011;10382;49.140;9.234;2022-09-30T01:05:43;9.30;;;4.80;;
20445;SDS011;10382;49.140;9.234;2022-09-30T01:08:10;13.47;;;5.57;;
20445;SDS011;10382;49.140;9.234;2022-09-30T01:10:37;11.93;;;5.30;;
20445;SDS011;10382;49.140;9.234;2022-09-30T01:13:04;7.73;;;5.33;;
20445;SDS011;10382;49.140;9.234;2022-09-30T01:18:23;10.60;;;7.10;;
20445;SDS011;10382;49.140;9.234;2022-09-30T01:21:20;8.03;;;5.63;;
20445;SDS011;10382;49.140;9.234;2022-09-30T01:24:15;12.50;;;5.70;;
20445;SDS011;10382;49.140;9.234;2022-09-30T01:27:04;11.70;;;5.83;;
20445;SDS011;10382;49.140;9.234;2022-09-30T01:29:56;11.90;;;5.73;;
20445;SDS011;10382;49.140;9.234;2022-09-30T01:32:42;12.23;;;5.87;;
20445;SDS011;10382;49.140;9.234;2022-09-30T01:35:25;10.87;;;5.67;;
20445;SDS011;10382;49.140;9.234;2022-09-30T01:38:02;7.73;;;5.17;;
20445;SDS011;10382;49.140;9.234;2022-09-30T01:40:39;10.33;;;6.50;;
20445;SDS011;10382;49.140;9.234;2022-09-30T01:43:10;9.60;;;6.50;;
20445;SDS011;10382;49.140;9.234;2022-09-30T01:45:45;20.73;;;5.70;;
20445;SDS011;10382;49.140;9.234;2022-09-30T01:48:19;9.80;;;6.60;;
20445;SDS011;10382;49.140;9.234;2022-09-30T01:50:51;9.67;;;5.93;;
20445;SDS011;10382;49.140;9.234;2022-09-30T01:53:24;8.00;;;6.30;;
20445;SDS011;10382;49.140;9.234;2022-09-30T01:55:56;7.97;;;6.27;;
20445;SDS011;10382;49.140;9.234;2022-09-30T01:58:29;21.80;;;7.20;;
20445;SDS011;10382;49.140;9.234;2022-09-30T02:01:03;11.60;;;6.50;;
20445;SDS011;10382;49.140;9.234;2022-09-30T02:03:37;13.10;;;7.07;;
20445;SDS011;10382;49.140;9.234;2022-09-30T02:06:10;8.60;;;6.07;;
20445;SDS011;10382;49.140;9.234;2022-09-30T02:08:41;12.43;;;5.33;;
20445;SDS011;10382;49.140;9.234;2022-09-30T02:11:14;11.73;;;6.57;;
20445;SDS011;10382;49.140;9.234;2022-09-30T02:13:44;14.83;;;7.27;;
20445;SDS011;10382;49.140;9.234;2022-09-30T02:16:18;19.70;;;6.43;;
20445;SDS011;10382;49.140;9.234;2022-09-30T02:18:49;7.93;;;5.30;;
20445;SDS011;10382;49.140;9.234;2022-09-30T02:21:19;8.80;;;6.33;;
20445;SDS011;10382;49.140;9.234;2022-09-30T02:23:51;21.73;;;6.37;;
20445;SDS011;10382;49.140;9.234;2022-09-30T02:26:23;10.07;;;6.77;;
20445;SDS011;10382;49.140;9.234;2022-09-30T02:28:55;5.93;;;4.77;;
20445;SDS011;10382;49.140;9.234;2022-09-30T02:31:28;12.50;;;5.97;;
20445;SDS011;10382;49.140;9.234;2022-09-30T02:34:00;10.97;;;7.60;;
20445;SDS011;10382;49.140;9.234;2022-09-30T02:36:32;11.43;;;6.97;;
20445;SDS011;10382;49.140;9.234;2022-09-30T02:39:03;11.50;;;6.50;;
20445;SDS011;10382;49.140;9.234;2022-09-30T02:41:33;9.73;;;6.67;;
20445;SDS011;10382;49.140;9.234;2022-09-30T02:44:04;8.80;;;6.40;;
20445;SDS011;10382;49.140;9.234;2022-09-30T02:46:33;7.73;;;5.73;;
20445;SDS011;10382;49.140;9.234;2022-09-30T02:49:10;19.17;;;7.40;;
20445;SDS011;10382;49.140;9.234;2022-09-30T02:51:50;9.00;;;5.83;;
20445;SDS011;10382;49.140;9.234;2022-09-30T02:54:26;14.70;;;6.33;;
20445;SDS011;10382;49.140;9.234;2022-09-30T02:57:01;14.73;;;6.97;;
20445;SDS011;10382;49.140;9.234;2022-09-30T02:59:38;16.03;;;7.17;;
20445;SDS011;10382;49.140;9.234;2022-09-30T03:02:05;9.97;;;6.27;;
20445;SDS011;10382;49.140;9.234;2022-09-30T03:04:34;13.47;;;7.10;;
20445;SDS011;10382;49.140;9.234;2022-09-30T03:07:03;14.93;;;8.23;;
20445;SDS011;10382;49.140;9.234;2022-09-30T03:09:33;14.00;;;8.00;;
20445;SDS011;10382;49.140;9.234;2022-09-30T03:12:04;14.40;;;6.73;;
20445;SDS011;10382;49.140;9.234;2022-09-30T03:14:44;12.97;;;7.77;;
20445;SDS011;10382;49.140;9.234;2022-09-30T03:17:39;15.13;;;7.60;;
20445;SDS011;10382;49.140;9.234;2022-09-30T03:20:25;12.83;;;7.40;;
20445;SDS011;10382;49.140;9.234;2022-09-30T03:23:27;11.10;;;6.90;;
20445;SDS011;10382;49.140;9.234;2022-09-30T03:26:08;13.57;;;6.57;;
20445;SDS011;10382;49.140;9.234;2022-09-30T03:28:45;10.63;;;6.23;;
20445;SDS011;10382;49.140;9.234;2022-09-30T03:31:24;9.00;;;6.30;;
20445;SDS011;10382;49.140;9.234;2022-09-30T03:34:03;11.43;;;6.73;;
20445;SDS011;10382;49.140;9.234;2022-09-30T03:36:37;14.10;;;8.23;;
20445;SDS011;10382;49.140;9.234;2022-09-30T03:39:10;10.37;;;6.90;;
20445;SDS011;10382;49.140;9.234;2022-09-30T03:41:49;17.70;;;7.10;;
20445;SDS011;10382;49.140;9.234;2022-09-30T03:44:22;11.33;;;7.57;;
20445;SDS011;10382;49.140;9.234;2022-09-30T03:46:53;9.03;;;6.77;;
20445;SDS011;10382;49.140;9.234;2022-09-30T03:49:25;10.87;;;6.53;;
20445;SDS011;10382;49.140;9.234;2022-09-30T03:51:57;8.13;;;5.63;;
20445;SDS011;10382;49.140;9.234;2022-09-30T03:54:30;13.60;;;7.97;;
20445;SDS011;10382;49.140;9.234;2022-09-30T03:56:57;13.50;;;6.93;;
20445;SDS011;10382;49.140;9.234;2022-09-30T03:59:27;14.73;;;7.20;;
20445;SDS011;10382;49.140;9.234;2022-09-30T04:01:54;11.03;;;6.40;;
20445;SDS011;10382;49.140;9.234;2022-09-30T04:04:22;22.57;;;8.17;;
20445;SDS011;10382;49.140;9.234;2022-09-30T04:06:49;18.50;;;7.30;;
20445;SDS011;10382;49.140;9.234;2022-09-30T04:09:17;17.90;;;7.27;;
20445;SDS011;10382;49.140;9.234;2022-09-30T04:11:44;16.50;;;7.27;;
20445;SDS011;10382;49.140;9.234;2022-09-30T04:14:11;9.40;;;5.13;;
20445;SDS011;10382;49.140;9.234;2022-09-30T04:16:37;17.13;;;6.37;;
20445;SDS011;10382;49.140;9.234;2022-09-30T04:19:04;15.27;;;6.60;;
20445;SDS011;10382;49.140;9.234;2022-09-30T04:21:31;11.13;;;5.77;;
20445;SDS011;10382;49.140;9.234;2022-09-30T04:23:58;13.00;;;6.57;;
20445;SDS011;10382;49.140;9.234;2022-09-30T04:26:26;17.37;;;7.83;;
20445;SDS011;10382;49.140;9.234;2022-09-30T04:28:53;9.50;;;5.80;;
20445;SDS011;10382;49.140;9.234;2022-09-30T04:31:22;13.10;;;6.10;;
20445;SDS011;10382;49.140;9.234;2022-09-30T04:33:50;12.27;;;7.43;;
20445;SDS011;10382;49.140;9.234;2022-09-30T04:36:17;14.30;;;7.30;;
20445;SDS011;10382;49.140;9.234;2022-09-30T04:38:43;14.87;;;7.77;;
20445;SDS011;10382;49.140;9.234;2022-09-30T04:41:12;14.23;;;7.77;;
20445;SDS011;10382;49.140;9.234;2022-09-30T04:43:42;11.30;;;7.70;;
20445;SDS011;10382;49.140;9.234;2022-09-30T04:46:09;19.37;;;6.33;;
20445;SDS011;10382;49.140;9.234;2022-09-30T04:48:36;7.30;;;5.63;;
20445;SDS011;10382;49.140;9.234;2022-09-30T04:51:03;16.90;;;7.07;;
20445;SDS011;10382;49.140;9.234;2022-09-30T04:53:30;13.30;;;8.10;;
20445;SDS011;10382;49.140;9.234;2022-09-30T04:55:58;9.10;;;6.17;;
20445;SDS011;10382;49.140;9.234;2022-09-30T04:58:26;10.53;;;6.20;;
20445;SDS011;10382;49.140;9.234;2022-09-30T05:01:00;13.53;;;7.07;;
20445;SDS011;10382;49.140;9.234;2022-09-30T05:03:27;13.83;;;7.33;;
20445;SDS011;10382;49.140;9.234;2022-09-30T05:05:54;9.90;;;6.37;;
20445;SDS011;10382;49.140;9.234;2022-09-30T05:08:21;10.97;;;6.40;;
20445;SDS011;10382;49.140;9.234;2022-09-30T05:10:54;16.37;;;7.57;;
20445;SDS011;10382;49.140;9.234;2022-09-30T05:13:22;11.47;;;6.50;;
20445;SDS011;10382;49.140;9.234;2022-09-30T05:15:50;22.13;;;6.57;;
20445;SDS011;10382;49.140;9.234;2022-09-30T05:18:19;17.57;;;8.57;;
20445;SDS011;10382;49.140;9.234;2022-09-30T05:20:47;10.80;;;7.37;;
20445;SDS011;10382;49.140;9.234;2022-09-30T05:23:15;9.30;;;6.47;;
20445;SDS011;10382;49.140;9.234;2022-09-30T05:25:42;7.63;;;5.50;;
20445;SDS011;10382;49.140;9.234;2022-09-30T05:28:09;7.03;;;5.70;;
20445;SDS011;10382;49.140;9.234;2022-09-30T05:30:36;10.00;;;6.57;;
20445;SDS011;10382;49.140;9.234;2022-09-30T05:33:03;7.83;;;6.60;;
20445;SDS011;10382;49.140;9.234;2022-09-30T05:35:32;10.17;;;6.00;;
20445;SDS011;10382;49.140;9.234;2022-09-30T05:37:59;11.63;;;7.90;;
20445;SDS011;10382;49.140;9.234;2022-09-30T05:40:27;10.20;;;7.17;;
20445;SDS011;10382;49.140;9.234;2022-09-30T05:42:55;17.17;;;7.03;;
20445;SDS011;10382;49.140;9.234;2022-09-30T05:45:22;14.40;;;7.80;;
20445;SDS011;10382;49.140;9.234;2022-09-30T05:47:52;12.50;;;7.90;;
20445;SDS011;10382;49.140;9.234;2022-09-30T05:50:19;15.90;;;8.33;;
20445;SDS011;10382;49.140;9.234;2022-09-30T05:52:48;11.43;;;7.43;;
20445;SDS011;10382;49.140;9.234;2022-09-30T05:55:16;14.63;;;6.60;;
20445;SDS011;10382;49.140;9.234;2022-09-30T05:57:46;15.80;;;7.30;;
20445;SDS011;10382;49.140;9.234;2022-09-30T06:00:14;15.10;;;7.90;;
20445;SDS011;10382;49.140;9.234;2022-09-30T06:02:41;12.60;;;8.40;;
20445;SDS011;10382;49.140;9.234;2022-09-30T06:05:08;11.13;;;6.67;;
20445;SDS011;10382;49.140;9.234;2022-09-30T06:07:36;14.20;;;6.83;;
20445;SDS011;10382;49.140;9.234;2022-09-30T06:10:06;14.13;;;6.93;;
20445;SDS011;10382;49.140;9.234;2022-09-30T06:12:36;9.80;;;6.83;;
20445;SDS011;10382;49.140;9.234;2022-09-30T06:15:03;19.23;;;7.13;;
20445;SDS011;10382;49.140;9.234;2022-09-30T06:17:31;18.87;;;9.27;;
20445;SDS011;10382;49.140;9.234;2022-09-30T06:19:58;13.13;;;8.50;;
20445;SDS011;10382;49.140;9.234;2022-09-30T06:22:26;16.30;;;8.57;;
20445;SDS011;10382;49.140;9.234;2022-09-30T06:24:52;26.13;;;9.47;;
20445;SDS011;10382;49.140;9.234;2022-09-30T06:27:21;16.77;;;10.37;;
20445;SDS011;10382;49.140;9.234;2022-09-30T06:29:47;12.23;;;8.77;;
20445;SDS011;10382;49.140;9.234;2022-09-30T06:32:14;22.23;;;9.43;;
20445;SDS011;10382;49.140;9.234;2022-09-30T06:34:41;15.57;;;9.10;;
20445;SDS011;10382;49.140;9.234;2022-09-30T06:37:08;12.80;;;8.80;;
20445;SDS011;10382;49.140;9.234;2022-09-30T06:39:40;11.10;;;8.23;;
20445;SDS011;10382;49.140;9.234;2022-09-30T06:42:06;13.50;;;8.37;;
20445;SDS011;10382;49.140;9.234;2022-09-30T06:44:35;17.13;;;8.27;;
20445;SDS011;10382;49.140;9.234;2022-09-30T06:47:02;8.60;;;7.07;;
20445;SDS011;10382;49.140;9.234;2022-09-30T06:49:29;11.13;;;7.67;;
20445;SDS011;10382;49.140;9.234;2022-09-30T06:51:57;10.60;;;7.30;;
20445;SDS011;10382;49.140;9.234;2022-09-30T06:54:25;15.53;;;7.80;;
20445;SDS011;10382;49.140;9.234;2022-09-30T06:56:52;18.13;;;9.07;;
20445;SDS011;10382;49.140;9.234;2022-09-30T06:59:21;19.87;;;10.63;;
20445;SDS011;10382;49.140;9.234;2022-09-30T07:01:49;15.37;;;10.20;;
20445;SDS011;10382;49.140;9.234;2022-09-30T07:04:16;19.37;;;11.70;;
20445;SDS011;10382;49.140;9.234;2022-09-30T07:06:43;19.87;;;12.27;;
20445;SDS011;10382;49.140;9.234;2022-09-30T07:09:10;21.77;;;13.33;;
20445;SDS011;10382;49.140;9.234;2022-09-30T07:11:37;26.40;;;12.23;;
20445;SDS011;10382;49.140;9.234;2022-09-30T07:14:04;20.67;;;13.37;;
20445;SDS011;10382;49.140;9.234;2022-09-30T07:16:31;23.60;;;14.00;;
20445;SDS011;10382;49.140;9.234;2022-09-30T07:19:00;34.80;;;16.03;;
20445;SDS011;10382;49.140;9.234;2022-09-30T07:21:28;26.87;;;15.23;;
20445;SDS011;10382;49.140;9.234;2022-09-30T07:23:55;32.00;;;18.13;;
20445;SDS011;10382;49.140;9.234;2022-09-30T07:26:24;29.43;;;15.77;;
20445;SDS011;10382;49.140;9.234;2022-09-30T07:28:52;26.50;;;14.57;;
20445;SDS011;10382;49.140;9.234;2022-09-30T07:31:20;37.00;;;14.50;;
20445;SDS011;10382;49.140;9.234;2022-09-30T07:33:48;22.63;;;14.30;;
20445;SDS011;10382;49.140;9.234;2022-09-30T07:36:18;28.00;;;16.30;;
20445;SDS011;10382;49.140;9.234;2022-09-30T07:38:50;24.23;;;14.10;;
20445;SDS011;10382;49.140;9.234;2022-09-30T07:41:19;24.17;;;16.00;;
20445;SDS011;10382;49.140;9.234;2022-09-30T07:43:51;40.07;;;16.30;;
20445;SDS011;10382;49.140;9.234;2022-09-30T07:46:22;20.30;;;13.70;;
20445;SDS011;10382;49.140;9.234;2022-09-30T07:48:51;32.83;;;14.50;;
20445;SDS011;10382;49.140;9.234;2022-09-30T07:51:23;24.47;;;14.07;;
20445;SDS011;10382;49.140;9.234;2022-09-30T07:53:52;22.30;;;14.40;;
20445;SDS011;10382;49.140;9.234;2022-09-30T07:56:21;26.73;;;14.50;;
20445;SDS011;10382;49.140;9.234;2022-09-30T07:58:48;24.07;;;13.40;;
20445;SDS011;10382;49.140;9.234;2022-09-30T08:01:19;23.30;;;14.17;;
20445;SDS011;10382;49.140;9.234;2022-09-30T08:03:46;25.10;;;15.77;;
20445;SDS011;10382;49.140;9.234;2022-09-30T08:06:15;30.83;;;14.77;;
20445;SDS011;10382;49.140;9.234;2022-09-30T08:08:44;24.23;;;13.87;;
20445;SDS011;10382;49.140;9.234;2022-09-30T08:11:12;32.90;;;11.93;;
20445;SDS011;10382;49.140;9.234;2022-09-30T08:13:39;21.83;;;11.53;;
20445;SDS011;10382;49.140;9.234;2022-09-30T08:16:06;23.60;;;12.07;;
20445;SDS011;10382;49.140;9.234;2022-09-30T08:18:33;18.90;;;12.63;;
20445;SDS011;10382;49.140;9.234;2022-09-30T08:21:01;17.83;;;11.80;;
20445;SDS011;10382;49.140;9.234;2022-09-30T08:23:29;17.80;;;11.53;;
20445;SDS011;10382;49.140;9.234;2022-09-30T08:26:00;18.30;;;10.33;;
20445;SDS011;10382;49.140;9.234;2022-09-30T08:28:28;20.33;;;11.37;;
20445;SDS011;10382;49.140;9.234;2022-09-30T08:31:01;18.23;;;10.60;;
20445;SDS011;10382;49.140;9.234;2022-09-30T08:33:29;22.87;;;12.47;;
20445;SDS011;10382;49.140;9.234;2022-09-30T08:36:00;16.70;;;10.10;;
20445;SDS011;10382;49.140;9.234;2022-09-30T08:38:28;40.00;;;11.83;;
20445;SDS011;10382;49.140;9.234;2022-09-30T08:40:57;19.80;;;10.73;;
20445;SDS011;10382;49.140;9.234;2022-09-30T08:43:44;26.87;;;14.33;;
20445;SDS011;10382;49.140;9.234;2022-09-30T08:46:23;15.43;;;8.80;;
20445;SDS011;10382;49.140;9.234;2022-09-30T08:49:05;20.93;;;10.60;;
20445;SDS011;10382;49.140;9.234;2022-09-30T08:51:46;18.40;;;9.90;;
20445;SDS011;10382;49.140;9.234;2022-09-30T08:54:15;19.80;;;11.53;;
20445;SDS011;10382;49.140;9.234;2022-09-30T08:56:47;22.53;;;10.73;;
20445;SDS011;10382;49.140;9.234;2022-09-30T08:59:28;26.40;;;11.03;;
20445;SDS011;10382;49.140;9.234;2022-09-30T09:01:59;25.73;;;9.80;;
20445;SDS011;10382;49.140;9.234;2022-09-30T09:04:40;33.63;;;12.37;;
20445;SDS011;10382;49.140;9.234;2022-09-30T09:07:09;21.23;;;9.13;;
20445;SDS011;10382;49.140;9.234;2022-09-30T09:09:50;44.67;;;12.73;;
20445;SDS011;10382;49.140;9.234;2022-09-30T09:12:30;21.57;;;8.70;;
20445;SDS011;10382;49.140;9.234;2022-09-30T09:15:12;26.73;;;8.83;;
20445;SDS011;10382;49.140;9.234;2022-09-30T09:17:57;19.37;;;8.30;;
20445;SDS011;10382;49.140;9.234;2022-09-30T09:20:46;17.17;;;7.93;;
20445;SDS011;10382;49.140;9.234;2022-09-30T09:23:18;24.07;;;8.83;;
20445;SDS011;10382;49.140;9.234;2022-09-30T09:25:46;26.30;;;8.37;;
20445;SDS011;10382;49.140;9.234;2022-09-30T09:28:21;24.67;;;9.30;;
20445;SDS011;10382;49.140;9.234;2022-09-30T09:30:53;23.13;;;8.10;;
20445;SDS011;10382;49.140;9.234;2022-09-30T09:33:25;27.97;;;9.00;;
20445;SDS011;10382;49.140;9.234;2022-09-30T09:36:01;35.33;;;8.77;;
20445;SDS011;10382;49.140;9.234;2022-09-30T09:38:37;28.83;;;7.97;;
20445;SDS011;10382;49.140;9.234;2022-09-30T09:41:15;34.27;;;8.97;;
20445;SDS011;10382;49.140;9.234;2022-09-30T09:43:55;30.50;;;8.97;;
20445;SDS011;10382;49.140;9.234;2022-09-30T09:46:28;22.30;;;7.67;;
20445;SDS011;10382;49.140;9.234;2022-09-30T09:52:15;18.57;;;6.97;;
20445;SDS011;10382;49.140;9.234;2022-09-30T09:55:02;34.17;;;9.20;;
20445;SDS011;10382;49.140;9.234;2022-09-30T09:57:29;28.73;;;8.53;;
20445;SDS011;10382;49.140;9.234;2022-09-30T09:59:58;29.47;;;8.50;;
20445;SDS011;10382;49.140;9.234;2022-09-30T10:03:00;24.63;;;8.00;;
20445;SDS011;10382;49.140;9.234;2022-09-30T10:05:29;34.63;;;8.07;;
20445;SDS011;10382;49.140;9.234;2022-09-30T10:08:11;39.03;;;8.60;;
20445;SDS011;10382;49.140;9.234;2022-09-30T10:10:42;19.67;;;6.63;;
20445;SDS011;10382;49.140;9.234;2022-09-30T10:13:14;18.60;;;6.60;;
20445;SDS011;10382;49.140;9.234;2022-09-30T10:15:46;15.53;;;5.63;;
20445;SDS011;10382;49.140;9.234;2022-09-30T10:18:19;21.97;;;6.93;;
20445;SDS011;10382;49.140;9.234;2022-09-30T10:20:51;20.57;;;7.07;;
20445;SDS011;10382;49.140;9.234;2022-09-30T10:23:21;24.33;;;6.77;;
20445;SDS011;10382;49.140;9.234;2022-09-30T10:25:55;16.23;;;5.23;;
20445;SDS011;10382;49.140;9.234;2022-09-30T10:28:29;23.13;;;6.77;;
20445;SDS011;10382;49.140;9.234;2022-09-30T10:31:00;22.30;;;6.30;;
20445;SDS011;10382;49.140;9.234;2022-09-30T10:33:31;24.90;;;6.90;;
20445;SDS011;10382;49.140;9.234;2022-09-30T10:36:05;23.77;;;7.00;;
20445;SDS011;10382;49.140;9.234;2022-09-30T10:38:35;18.30;;;6.27;;
20445;SDS011;10382;49.140;9.234;2022-09-30T10:41:09;17.60;;;5.90;;
20445;SDS011;10382;49.140;9.234;2022-09-30T10:43:38;19.53;;;6.43;;
20445;SDS011;10382;49.140;9.234;2022-09-30T10:46:09;20.73;;;6.53;;
20445;SDS011;10382;49.140;9.234;2022-09-30T10:48:37;24.20;;;6.80;;
20445;SDS011;10382;49.140;9.234;2022-09-30T10:51:15;17.60;;;5.00;;
20445;SDS011;10382;49.140;9.234;2022-09-30T10:53:49;31.77;;;7.60;;
20445;SDS011;10382;49.140;9.234;2022-09-30T10:56:30;23.20;;;6.03;;
20445;SDS011;10382;49.140;9.234;2022-09-30T10:58:58;24.70;;;7.40;;
20445;SDS011;10382;49.140;9.234;2022-09-30T11:01:29;22.47;;;6.33;;
20445;SDS011;10382;49.140;9.234;2022-09-30T11:04:03;19.90;;;6.33;;
20445;SDS011;10382;49.140;9.234;2022-09-30T11:06:36;20.07;;;5.80;;
20445;SDS011;10382;49.140;9.234;2022-09-30T11:09:05;30.03;;;8.27;;
20445;SDS011;10382;49.140;9.234;2022-09-30T11:11:38;21.03;;;5.87;;
20445;SDS011;10382;49.140;9.234;2022-09-30T11:14:18;21.57;;;5.57;;
20445;SDS011;10382;49.140;9.234;2022-09-30T11:17:00;27.40;;;6.80;;
20445;SDS011;10382;49.140;9.234;2022-09-30T11:19:37;26.40;;;7.07;;
20445;SDS011;10382;49.140;9.234;2022-09-30T11:22:18;14.20;;;4.80;;
20445;SDS011;10382;49.140;9.234;2022-09-30T11:24:54;24.17;;;6.63;;
20445;SDS011;10382;49.140;9.234;2022-09-30T11:27:24;20.13;;;5.63;;
20445;SDS011;10382;49.140;9.234;2022-09-30T11:30:06;23.33;;;5.97;;
20445;SDS011;10382;49.140;9.234;2022-09-30T11:32:39;11.87;;;3.97;;
20445;SDS011;10382;49.140;9.234;2022-09-30T11:35:29;18.93;;;5.93;;
20445;SDS011;10382;49.140;9.234;2022-09-30T11:38:06;23.33;;;5.97;;
20445;SDS011;10382;49.140;9.234;2022-09-30T11:40:38;16.30;;;5.63;;
20445;SDS011;10382;49.140;9.234;2022-09-30T11:43:15;21.70;;;5.87;;
20445;SDS011;10382;49.140;9.234;2022-09-30T11:46:00;19.53;;;4.83;;
20445;SDS011;10382;49.140;9.234;2022-09-30T11:48:41;25.43;;;6.80;;
20445;SDS011;10382;49.140;9.234;2022-09-30T11:51:22;23.87;;;5.97;;
20445;SDS011;10382;49.140;9.234;2022-09-30T11:53:59;29.47;;;5.30;;
20445;SDS011;10382;49.140;9.234;2022-09-30T11:56:40;19.27;;;5.97;;
20445;SDS011;10382;49.140;9.234;2022-09-30T11:59:16;18.50;;;5.90;;
20445;SDS011;10382;49.140;9.234;2022-09-30T12:01:46;16.57;;;6.03;;
20445;SDS011;10382;49.140;9.234;2022-09-30T12:04:19;17.50;;;6.70;;
20445;SDS011;10382;49.140;9.234;2022-09-30T12:06:55;22.43;;;8.13;;
20445;SDS011;10382;49.140;9.234;2022-09-30T12:09:25;19.40;;;6.43;;
20445;SDS011;10382;49.140;9.234;2022-09-30T12:11:58;20.73;;;6.60;;
20445;SDS011;10382;49.140;9.234;2022-09-30T12:14:28;19.53;;;7.07;;
20445;SDS011;10382;49.140;9.234;2022-09-30T12:16:59;17.30;;;5.97;;
20445;SDS011;10382;49.140;9.234;2022-09-30T12:19:33;18.60;;;6.83;;
20445;SDS011;10382;49.140;9.234;2022-09-30T12:22:10;15.60;;;5.70;;
20445;SDS011;10382;49.140;9.234;2022-09-30T12:24:40;25.00;;;6.07;;
20445;SDS011;10382;49.140;9.234;2022-09-30T12:27:12;25.27;;;7.67;;
20445;SDS011;10382;49.140;9.234;2022-09-30T12:29:43;20.27;;;7.03;;
20445;SDS011;10382;49.140;9.234;2022-09-30T12:41:53;14.23;;;6.30;;
20445;SDS011;10382;49.140;9.234;2022-09-30T12:47:43;21.10;;;7.23;;
20445;SDS011;10382;49.140;9.234;2022-09-30T12:50:14;21.60;;;6.80;;
20445;SDS011;10382;49.140;9.234;2022-09-30T12:52:44;23.73;;;7.70;;
20445;SDS011;10382;49.140;9.234;2022-09-30T12:55:17;24.87;;;6.20;;
20445;SDS011;10382;49.140;9.234;2022-09-30T12:57:49;19.23;;;6.73;;
20445;SDS011;10382;49.140;9.234;2022-09-30T13:00:18;18.23;;;5.87;;
20445;SDS011;10382;49.140;9.234;2022-09-30T13:02:47;19.63;;;6.97;;
20445;SDS011;10382;49.140;9.234;2022-09-30T13:11:28;16.30;;;5.13;;
20445;SDS011;10382;49.140;9.234;2022-09-30T13:14:02;13.33;;;5.00;;
20445;SDS011;10382;49.140;9.234;2022-09-30T13:19:51;17.83;;;6.87;;
20445;SDS011;10382;49.140;9.234;2022-09-30T13:25:24;12.80;;;5.27;;
20445;SDS011;10382;49.140;9.234;2022-09-30T13:27:53;27.10;;;8.77;;
20445;SDS011;10382;49.140;9.234;2022-09-30T13:33:43;32.63;;;10.57;;
20445;SDS011;10382;49.140;9.234;2022-09-30T13:36:24;18.60;;;5.80;;
20445;SDS011;10382;49.140;9.234;2022-09-30T13:41:54;9.73;;;5.10;;
20445;SDS011;10382;49.140;9.234;2022-09-30T13:44:43;10.40;;;5.27;;
20445;SDS011;10382;49.140;9.234;2022-09-30T13:47:24;16.30;;;7.30;;
20445;SDS011;10382;49.140;9.234;2022-09-30T13:49:55;13.97;;;5.47;;
20445;SDS011;10382;49.140;9.234;2022-09-30T13:52:25;16.10;;;5.40;;
20445;SDS011;10382;49.140;9.234;2022-09-30T13:54:57;16.60;;;6.23;;
20445;SDS011;10382;49.140;9.234;2022-09-30T13:57:31;19.83;;;8.10;;
20445;SDS011;10382;49.140;9.234;2022-09-30T14:00:09;12.23;;;6.03;;
20445;SDS011;10382;49.140;9.234;2022-09-30T14:02:43;16.37;;;6.27;;
20445;SDS011;10382;49.140;9.234;2022-09-30T14:05:37;7.50;;;4.50;;
20445;SDS011;10382;49.140;9.234;2022-09-30T14:08:33;20.97;;;5.83;;
20445;SDS011;10382;49.140;9.234;2022-09-30T14:11:25;12.93;;;4.53;;
20445;SDS011;10382;49.140;9.234;2022-09-30T14:14:07;16.80;;;7.53;;
20445;SDS011;10382;49.140;9.234;2022-09-30T14:16:59;12.70;;;5.20;;
20445;SDS011;10382;49.140;9.234;2022-09-30T14:22:24;12.37;;;5.07;;
20445;SDS011;10382;49.140;9.234;2022-09-30T14:24:54;16.20;;;6.60;;
20445;SDS011;10382;49.140;9.234;2022-09-30T14:27:36;11.53;;;5.13;;
20445;SDS011;10382;49.140;9.234;2022-09-30T14:30:13;21.30;;;5.90;;
20445;SDS011;10382;49.140;9.234;2022-09-30T14:32:46;14.43;;;6.03;;
20445;SDS011;10382;49.140;9.234;2022-09-30T14:35:16;16.73;;;6.50;;
20445;SDS011;10382;49.140;9.234;2022-09-30T14:37:46;14.07;;;5.67;;
20445;SDS011;10382;49.140;9.234;2022-09-30T14:40:15;16.17;;;6.47;;
20445;SDS011;10382;49.140;9.234;2022-09-30T14:42:45;8.53;;;4.50;;
20445;SDS011;10382;49.140;9.234;2022-09-30T14:45:17;15.00;;;5.90;;
20445;SDS011;10382;49.140;9.234;2022-09-30T14:47:50;12.00;;;5.07;;
20445;SDS011;10382;49.140;9.234;2022-09-30T14:50:19;12.00;;;5.33;;
20445;SDS011;10382;49.140;9.234;2022-09-30T14:52:50;14.33;;;6.00;;
20445;SDS011;10382;49.140;9.234;2022-09-30T14:55:21;11.70;;;5.20;;
20445;SDS011;10382;49.140;9.234;2022-09-30T14:57:54;15.20;;;6.33;;
20445;SDS011;10382;49.140;9.234;2022-09-30T15:00:37;20.07;;;6.20;;
20445;SDS011;10382;49.140;9.234;2022-09-30T15:03:08;13.80;;;5.07;;
20445;SDS011;10382;49.140;9.234;2022-09-30T15:05:37;14.83;;;4.87;;
20445;SDS011;10382;49.140;9.234;2022-09-30T15:08:08;17.33;;;5.53;;
20445;SDS011;10382;49.140;9.234;2022-09-30T15:10:36;12.40;;;4.70;;
20445;SDS011;10382;49.140;9.234;2022-09-30T15:13:05;8.63;;;4.00;;
20445;SDS011;10382;49.140;9.234;2022-09-30T15:15:36;12.57;;;4.80;;
20445;SDS011;10382;49.140;9.234;2022-09-30T15:21:10;16.80;;;5.03;;
20445;SDS011;10382;49.140;9.234;2022-09-30T15:23:40;15.60;;;6.00;;
20445;SDS011;10382;49.140;9.234;2022-09-30T15:26:10;10.53;;;4.60;;
20445;SDS011;10382;49.140;9.234;2022-09-30T15:28:38;8.27;;;3.83;;
20445;SDS011;10382;49.140;9.234;2022-09-30T15:31:05;10.20;;;3.93;;
20445;SDS011;10382;49.140;9.234;2022-09-30T15:33:39;15.20;;;4.93;;
20445;SDS011;10382;49.140;9.234;2022-09-30T15:36:11;7.27;;;3.37;;
20445;SDS011;10382;49.140;9.234;2022-09-30T15:38:44;15.20;;;5.30;;
20445;SDS011;10382;49.140;9.234;2022-09-30T15:41:13;12.47;;;4.80;;
20445;SDS011;10382;49.140;9.234;2022-09-30T15:43:41;15.13;;;5.93;;
20445;SDS011;10382;49.140;9.234;2022-09-30T15:46:21;13.73;;;4.60;;